LOT500 BIKF-EPWA
Flight info
| Callsign | LOT500 |
|---|---|
| Flight time | N/A |
| Altitude | 35000 |
| Route | OSKUM3C OSKUM DCT 63N010W DCT GUNPA/N0449F370 DCT NERDO DCT AMROR N983 ELPOL N195 SORIX |
| Aircraft | B38M/M-SDE1FGHILORVWXY/HB1 |
Departure
| Time | 2026-04-30 12:53 |
|---|---|
| Airport | Keflavik International Airport (BIKF) |
Arrival
| Time | N/A |
|---|---|
| Airport | Warsaw Chopin Airport (EPWA) |
| Time | Latitude | Longitude | Altitude | Speed | Heading |
|---|---|---|---|---|---|
| 2026-04-30 12:16 | 63.99276 | -22.62305 | 143 ft | 0 kts | 0° |
| 2026-04-30 12:41 | 63.99259 | -22.62305 | 143 ft | 4 kts | 0° |
| 2026-04-30 12:42 | 63.99232 | -22.62305 | 143 ft | 4 kts | 0° |
| 2026-04-30 12:42 | 63.99205 | -22.62305 | 143 ft | 4 kts | 0° |
| 2026-04-30 12:42 | 63.99181 | -22.62310 | 143 ft | 4 kts | 33° |
| 2026-04-30 12:42 | 63.99173 | -22.62346 | 143 ft | 1 kts | 90° |
| 2026-04-30 12:43 | 63.99172 | -22.62398 | 143 ft | 2 kts | 90° |
| 2026-04-30 12:43 | 63.99172 | -22.62403 | 143 ft | 2 kts | 90° |
| 2026-04-30 12:48 | 63.99172 | -22.62401 | 143 ft | 1 kts | 90° |
| 2026-04-30 12:48 | 63.99172 | -22.62302 | 143 ft | 13 kts | 90° |
| 2026-04-30 12:49 | 63.99172 | -22.62011 | 143 ft | 22 kts | 90° |
| 2026-04-30 12:49 | 63.99172 | -22.61662 | 148 ft | 21 kts | 90° |
| 2026-04-30 12:49 | 63.99173 | -22.61351 | 155 ft | 18 kts | 90° |
| 2026-04-30 12:49 | 63.99173 | -22.61080 | 160 ft | 16 kts | 90° |
| 2026-04-30 12:50 | 63.99173 | -22.60846 | 165 ft | 13 kts | 90° |
| 2026-04-30 12:50 | 63.99172 | -22.60753 | 168 ft | 0 kts | 90° |
| 2026-04-30 12:50 | 63.99172 | -22.60748 | 168 ft | 2 kts | 90° |
| 2026-04-30 12:51 | 63.99172 | -22.60655 | 172 ft | 10 kts | 90° |
| 2026-04-30 12:51 | 63.99160 | -22.60534 | 175 ft | 0 kts | 144° |
| 2026-04-30 12:51 | 63.99159 | -22.60535 | 175 ft | 0 kts | 166° |
| 2026-04-30 12:51 | 63.99131 | -22.60539 | 176 ft | 8 kts | 181° |
| 2026-04-30 12:52 | 63.99110 | -22.60540 | 176 ft | 4 kts | 181° |
| 2026-04-30 12:52 | 63.98964 | -22.60544 | 175 ft | 52 kts | 181° |
| 2026-04-30 12:52 | 63.98347 | -22.60544 | 175 ft | 125 kts | 180° |
| 2026-04-30 12:52 | 63.97302 | -22.60550 | 427 ft | 164 kts | 185° |
| 2026-04-30 12:53 | 63.96133 | -22.60410 | 1343 ft | 169 kts | 183° |
| 2026-04-30 12:53 | 63.94943 | -22.60201 | 2310 ft | 176 kts | 181° |
| 2026-04-30 12:53 | 63.93670 | -22.59678 | 2938 ft | 199 kts | 167° |
| 2026-04-30 12:53 | 63.92513 | -22.57545 | 3480 ft | 237 kts | 126° |
| 2026-04-30 12:54 | 63.91988 | -22.53787 | 4167 ft | 263 kts | 102° |
| 2026-04-30 12:54 | 63.91668 | -22.49689 | 5202 ft | 265 kts | 106° |
| 2026-04-30 12:54 | 63.91227 | -22.45531 | 5932 ft | 282 kts | 109° |
| 2026-04-30 12:54 | 63.90622 | -22.40983 | 6002 ft | 321 kts | 111° |
| 2026-04-30 12:55 | 63.89833 | -22.35864 | 5884 ft | 363 kts | 113° |
| 2026-04-30 12:55 | 63.88918 | -22.30341 | 5908 ft | 372 kts | 114° |
| 2026-04-30 12:55 | 63.88019 | -22.25030 | 5957 ft | 351 kts | 114° |
| 2026-04-30 12:55 | 63.87153 | -22.19997 | 6046 ft | 329 kts | 115° |
| 2026-04-30 12:56 | 63.86348 | -22.15367 | 6223 ft | 308 kts | 116° |
| 2026-04-30 12:56 | 63.85569 | -22.10948 | 6192 ft | 295 kts | 116° |
| 2026-04-30 12:56 | 63.84831 | -22.06790 | 6701 ft | 282 kts | 116° |
| 2026-04-30 12:56 | 63.84090 | -22.02651 | 7223 ft | 286 kts | 116° |
| 2026-04-30 12:57 | 63.83574 | -21.98238 | 7787 ft | 295 kts | 99° |
| 2026-04-30 12:57 | 63.83339 | -21.93615 | 8740 ft | 298 kts | 100° |
| 2026-04-30 12:57 | 63.83079 | -21.88870 | 9451 ft | 310 kts | 100° |
| 2026-04-30 12:57 | 63.82809 | -21.83999 | 10278 ft | 314 kts | 100° |
| 2026-04-30 12:58 | 63.82529 | -21.78986 | 10832 ft | 329 kts | 100° |
| 2026-04-30 12:58 | 63.82231 | -21.73712 | 11261 ft | 347 kts | 100° |
| 2026-04-30 12:58 | 63.81916 | -21.68154 | 11664 ft | 364 kts | 100° |
| 2026-04-30 12:58 | 63.81584 | -21.62346 | 12125 ft | 379 kts | 100° |
| 2026-04-30 12:59 | 63.81238 | -21.56342 | 12606 ft | 391 kts | 100° |
| 2026-04-30 12:59 | 63.80883 | -21.50222 | 13396 ft | 393 kts | 100° |
| 2026-04-30 12:59 | 63.80522 | -21.44032 | 14017 ft | 400 kts | 100° |
| 2026-04-30 12:59 | 63.80157 | -21.37854 | 14609 ft | 404 kts | 100° |
| 2026-04-30 13:00 | 63.79780 | -21.31501 | 15189 ft | 410 kts | 100° |
| 2026-04-30 13:00 | 63.79396 | -21.25076 | 15768 ft | 415 kts | 100° |
| 2026-04-30 13:00 | 63.79004 | -21.18570 | 16331 ft | 420 kts | 100° |
| 2026-04-30 13:00 | 63.78604 | -21.11992 | 16886 ft | 425 kts | 101° |
| 2026-04-30 13:01 | 63.78196 | -21.05327 | 17446 ft | 430 kts | 101° |
| 2026-04-30 13:01 | 63.77644 | -20.98674 | 17994 ft | 432 kts | 108° |
| 2026-04-30 13:01 | 63.76888 | -20.92071 | 18484 ft | 436 kts | 108° |
| 2026-04-30 13:01 | 63.76114 | -20.85406 | 18968 ft | 440 kts | 108° |
| 2026-04-30 13:02 | 63.75328 | -20.78703 | 19471 ft | 444 kts | 108° |
| 2026-04-30 13:02 | 63.74528 | -20.71937 | 19938 ft | 448 kts | 108° |
| 2026-04-30 13:02 | 63.73721 | -20.65126 | 20416 ft | 451 kts | 108° |
| 2026-04-30 13:02 | 63.72902 | -20.58262 | 20884 ft | 455 kts | 108° |
| 2026-04-30 13:03 | 63.72074 | -20.51347 | 21332 ft | 459 kts | 108° |
| 2026-04-30 13:03 | 63.71301 | -20.44330 | 21781 ft | 464 kts | 101° |
| 2026-04-30 13:03 | 63.71018 | -20.37045 | 22271 ft | 468 kts | 95° |
| 2026-04-30 13:03 | 63.70774 | -20.29688 | 22663 ft | 473 kts | 96° |
| 2026-04-30 13:04 | 63.70534 | -20.22275 | 23125 ft | 476 kts | 95° |
| 2026-04-30 13:04 | 63.70290 | -20.14801 | 23535 ft | 480 kts | 95° |
| 2026-04-30 13:04 | 63.70042 | -20.07272 | 23907 ft | 482 kts | 96° |
| 2026-04-30 13:04 | 63.69789 | -19.99719 | 24314 ft | 484 kts | 95° |
| 2026-04-30 13:05 | 63.69532 | -19.92140 | 24679 ft | 486 kts | 96° |
| 2026-04-30 13:05 | 63.69268 | -19.84520 | 25051 ft | 489 kts | 96° |
| 2026-04-30 13:05 | 63.69000 | -19.76873 | 25431 ft | 490 kts | 96° |
| 2026-04-30 13:06 | 63.68448 | -19.61477 | 26144 ft | 495 kts | 96° |
| 2026-04-30 13:06 | 63.68163 | -19.53732 | 26506 ft | 497 kts | 96° |
| 2026-04-30 13:06 | 63.67874 | -19.45970 | 26851 ft | 499 kts | 96° |
| 2026-04-30 13:06 | 63.67648 | -19.39982 | 27107 ft | 500 kts | 96° |
| 2026-04-30 13:07 | 63.67349 | -19.32152 | 27464 ft | 502 kts | 96° |
| 2026-04-30 13:07 | 63.67044 | -19.24292 | 27808 ft | 504 kts | 96° |
| 2026-04-30 13:07 | 63.66735 | -19.16407 | 28126 ft | 506 kts | 96° |
| 2026-04-30 13:07 | 63.66419 | -19.08497 | 28432 ft | 508 kts | 96° |
| 2026-04-30 13:08 | 63.66207 | -19.03243 | 28633 ft | 510 kts | 97° |
| 2026-04-30 13:08 | 63.65770 | -18.92577 | 29015 ft | 513 kts | 97° |
| 2026-04-30 13:08 | 63.65438 | -18.84571 | 29289 ft | 515 kts | 97° |
| 2026-04-30 13:08 | 63.65100 | -18.76540 | 29588 ft | 517 kts | 97° |
| 2026-04-30 13:09 | 63.64760 | -18.68581 | 29874 ft | 518 kts | 97° |
| 2026-04-30 13:09 | 63.64405 | -18.60389 | 30144 ft | 520 kts | 97° |
| 2026-04-30 13:09 | 63.64050 | -18.52282 | 30378 ft | 521 kts | 98° |
| 2026-04-30 13:09 | 63.63689 | -18.44163 | 30682 ft | 521 kts | 98° |
| 2026-04-30 13:10 | 63.63330 | -18.36178 | 31054 ft | 519 kts | 98° |
| 2026-04-30 13:10 | 63.62958 | -18.28009 | 31424 ft | 517 kts | 99° |
| 2026-04-30 13:10 | 63.62593 | -18.20088 | 31772 ft | 515 kts | 99° |
| 2026-04-30 13:10 | 63.62214 | -18.11982 | 32136 ft | 514 kts | 99° |
| 2026-04-30 13:11 | 63.61842 | -18.04121 | 32486 ft | 512 kts | 100° |
| 2026-04-30 13:11 | 63.61462 | -17.96167 | 32809 ft | 511 kts | 100° |
| 2026-04-30 13:11 | 63.61079 | -17.88241 | 33143 ft | 510 kts | 100° |
| 2026-04-30 13:11 | 63.60692 | -17.80335 | 33451 ft | 509 kts | 101° |
| 2026-04-30 13:12 | 63.60301 | -17.72445 | 33769 ft | 508 kts | 101° |
| 2026-04-30 13:12 | 63.59906 | -17.64560 | 34032 ft | 507 kts | 101° |
| 2026-04-30 13:12 | 63.59509 | -17.56701 | 34258 ft | 507 kts | 101° |
| 2026-04-30 13:13 | 63.58700 | -17.40976 | 34688 ft | 506 kts | 101° |
| 2026-04-30 13:13 | 63.58288 | -17.33123 | 34888 ft | 507 kts | 101° |
| 2026-04-30 13:14 | 63.57170 | -17.12162 | 34963 ft | 504 kts | 102° |
| 2026-04-30 13:14 | 63.55883 | -16.88736 | 34964 ft | 504 kts | 102° |
| 2026-04-30 13:15 | 63.54567 | -16.65488 | 34971 ft | 503 kts | 102° |
| 2026-04-30 13:16 | 63.53665 | -16.49946 | 34967 ft | 503 kts | 102° |
| 2026-04-30 13:16 | 63.52747 | -16.34420 | 34966 ft | 502 kts | 103° |
| 2026-04-30 13:17 | 63.51341 | -16.11184 | 34968 ft | 502 kts | 103° |
| 2026-04-30 13:18 | 63.49898 | -15.87994 | 34973 ft | 501 kts | 103° |
| 2026-04-30 13:18 | 63.48420 | -15.64852 | 34976 ft | 501 kts | 104° |
| 2026-04-30 13:19 | 63.47414 | -15.49444 | 34976 ft | 500 kts | 104° |
| 2026-04-30 13:19 | 63.46393 | -15.34064 | 34980 ft | 500 kts | 104° |
| 2026-04-30 13:20 | 63.45355 | -15.18699 | 34977 ft | 499 kts | 104° |
| 2026-04-30 13:20 | 63.44303 | -15.03364 | 34984 ft | 499 kts | 105° |
| 2026-04-30 13:21 | 63.43234 | -14.88049 | 34973 ft | 499 kts | 105° |
| 2026-04-30 13:22 | 63.41603 | -14.65135 | 34987 ft | 498 kts | 105° |
| 2026-04-30 13:22 | 63.39937 | -14.42265 | 34987 ft | 497 kts | 106° |
| 2026-04-30 13:23 | 63.38236 | -14.19451 | 34985 ft | 497 kts | 106° |
| 2026-04-30 13:24 | 63.35924 | -13.89222 | 34993 ft | 496 kts | 107° |
| 2026-04-30 13:25 | 63.33545 | -13.58998 | 34997 ft | 495 kts | 108° |
| 2026-04-30 13:26 | 63.30498 | -13.21503 | 35000 ft | 494 kts | 108° |
| 2026-04-30 13:28 | 63.27345 | -12.83996 | 35006 ft | 493 kts | 109° |
| 2026-04-30 13:28 | 63.25410 | -12.61574 | 35007 ft | 493 kts | 109° |
| 2026-04-30 13:29 | 63.22778 | -12.31756 | 35008 ft | 492 kts | 110° |
| 2026-04-30 13:31 | 63.19416 | -11.94737 | 35011 ft | 491 kts | 110° |
| 2026-04-30 13:32 | 63.15953 | -11.57748 | 35020 ft | 490 kts | 110° |
| 2026-04-30 13:33 | 63.13118 | -11.28265 | 35025 ft | 490 kts | 111° |
| 2026-04-30 13:34 | 63.10953 | -11.06208 | 35023 ft | 489 kts | 111° |
| 2026-04-30 13:35 | 63.08027 | -10.76890 | 35032 ft | 489 kts | 111° |
| 2026-04-30 13:36 | 63.05061 | -10.47748 | 35032 ft | 488 kts | 111° |
| 2026-04-30 13:36 | 63.02795 | -10.25890 | 35035 ft | 487 kts | 111° |
| 2026-04-30 13:37 | 63.00502 | -10.04103 | 35038 ft | 487 kts | 111° |
| 2026-04-30 13:38 | 62.97304 | -9.83232 | 35034 ft | 480 kts | 117° |
| 2026-04-30 13:39 | 62.92992 | -9.55522 | 35036 ft | 479 kts | 117° |
| 2026-04-30 13:40 | 62.89733 | -9.34823 | 35039 ft | 478 kts | 117° |
| 2026-04-30 13:40 | 62.87558 | -9.21149 | 35045 ft | 478 kts | 117° |
| 2026-04-30 13:41 | 62.85358 | -9.07415 | 35048 ft | 478 kts | 117° |
| 2026-04-30 13:41 | 62.83146 | -8.93708 | 35049 ft | 478 kts | 117° |
| 2026-04-30 13:42 | 62.80922 | -8.80032 | 35057 ft | 477 kts | 118° |
| 2026-04-30 13:42 | 62.77558 | -8.59536 | 35064 ft | 478 kts | 118° |
| 2026-04-30 13:43 | 62.75298 | -8.45898 | 35066 ft | 478 kts | 118° |
| 2026-04-30 13:43 | 62.73026 | -8.32280 | 35077 ft | 478 kts | 118° |
| 2026-04-30 13:44 | 62.70739 | -8.18678 | 35076 ft | 478 kts | 119° |
| 2026-04-30 13:44 | 62.68438 | -8.05090 | 35083 ft | 478 kts | 119° |
| 2026-04-30 13:45 | 62.64967 | -7.84780 | 35091 ft | 477 kts | 119° |
| 2026-04-30 13:46 | 62.62653 | -7.71360 | 35098 ft | 477 kts | 120° |
| 2026-04-30 13:46 | 62.60314 | -7.57889 | 35103 ft | 476 kts | 120° |
| 2026-04-30 13:47 | 62.57966 | -7.44463 | 35111 ft | 476 kts | 120° |
| 2026-04-30 13:47 | 62.55607 | -7.31067 | 35118 ft | 475 kts | 120° |
| 2026-04-30 13:48 | 62.53235 | -7.17693 | 35131 ft | 475 kts | 120° |
| 2026-04-30 13:48 | 62.50849 | -7.04335 | 35120 ft | 475 kts | 120° |
| 2026-04-30 13:49 | 62.48454 | -6.91016 | 35121 ft | 475 kts | 120° |
| 2026-04-30 13:49 | 62.46043 | -6.77701 | 35123 ft | 476 kts | 121° |
| 2026-04-30 13:50 | 62.43620 | -6.64409 | 35124 ft | 476 kts | 121° |
| 2026-04-30 13:50 | 62.39956 | -6.44485 | 35123 ft | 476 kts | 121° |
| 2026-04-30 13:51 | 62.37513 | -6.31310 | 35127 ft | 477 kts | 121° |
| 2026-04-30 13:51 | 62.35038 | -6.18059 | 35130 ft | 477 kts | 121° |
| 2026-04-30 13:52 | 62.32551 | -6.04822 | 35134 ft | 477 kts | 121° |
| 2026-04-30 13:52 | 62.30046 | -5.91589 | 35136 ft | 478 kts | 121° |
| 2026-04-30 13:53 | 62.27530 | -5.78376 | 35137 ft | 478 kts | 121° |
| 2026-04-30 13:53 | 62.24997 | -5.65170 | 35143 ft | 479 kts | 121° |
| 2026-04-30 13:54 | 62.22450 | -5.51977 | 35145 ft | 479 kts | 121° |
| 2026-04-30 13:54 | 62.19892 | -5.38808 | 35152 ft | 478 kts | 121° |
| 2026-04-30 13:55 | 62.17323 | -5.25674 | 35155 ft | 478 kts | 121° |
| 2026-04-30 13:55 | 62.14743 | -5.12570 | 35159 ft | 478 kts | 121° |
| 2026-04-30 13:56 | 62.12158 | -4.99523 | 35166 ft | 477 kts | 121° |
| 2026-04-30 13:56 | 62.09560 | -4.86501 | 35168 ft | 476 kts | 121° |
| 2026-04-30 13:57 | 62.06957 | -4.73526 | 35170 ft | 476 kts | 121° |
| 2026-04-30 13:57 | 62.04341 | -4.60575 | 35177 ft | 476 kts | 121° |
| 2026-04-30 13:58 | 62.00415 | -4.41294 | 35180 ft | 476 kts | 121° |
| 2026-04-30 13:59 | 61.97769 | -4.28399 | 35184 ft | 476 kts | 121° |
| 2026-04-30 13:59 | 61.95112 | -4.15528 | 35185 ft | 476 kts | 121° |
| 2026-04-30 14:00 | 61.92441 | -4.02676 | 35188 ft | 476 kts | 121° |
| 2026-04-30 14:00 | 61.88429 | -3.83515 | 35194 ft | 476 kts | 121° |
| 2026-04-30 14:01 | 61.85729 | -3.70723 | 35196 ft | 475 kts | 121° |
| 2026-04-30 14:01 | 61.83020 | -3.57963 | 35199 ft | 475 kts | 121° |
| 2026-04-30 14:02 | 61.80303 | -3.45243 | 35201 ft | 474 kts | 121° |
| 2026-04-30 14:02 | 61.77574 | -3.32544 | 35205 ft | 474 kts | 121° |
| 2026-04-30 14:03 | 61.74837 | -3.19890 | 35207 ft | 474 kts | 122° |
| 2026-04-30 14:03 | 61.72091 | -3.07262 | 35213 ft | 473 kts | 122° |
| 2026-04-30 14:04 | 61.69334 | -2.94668 | 35208 ft | 473 kts | 122° |
| 2026-04-30 14:04 | 61.66569 | -2.82108 | 35212 ft | 473 kts | 122° |
| 2026-04-30 14:05 | 61.64263 | -2.71688 | 35214 ft | 472 kts | 122° |
| 2026-04-30 14:05 | 61.61480 | -2.59183 | 35213 ft | 472 kts | 122° |
| 2026-04-30 14:06 | 61.57284 | -2.40470 | 35227 ft | 472 kts | 122° |
| 2026-04-30 14:07 | 61.53068 | -2.21829 | 35230 ft | 471 kts | 122° |
| 2026-04-30 14:08 | 61.48829 | -2.03247 | 35235 ft | 471 kts | 122° |
| 2026-04-30 14:08 | 61.44590 | -1.84827 | 35240 ft | 471 kts | 122° |
| 2026-04-30 14:09 | 61.41737 | -1.72517 | 35244 ft | 471 kts | 122° |
| 2026-04-30 14:10 | 61.37437 | -1.54100 | 35252 ft | 470 kts | 122° |
| 2026-04-30 14:10 | 61.34558 | -1.41852 | 35256 ft | 470 kts | 122° |
| 2026-04-30 14:11 | 61.31669 | -1.29635 | 35255 ft | 471 kts | 122° |
| 2026-04-30 14:11 | 61.28767 | -1.17431 | 35262 ft | 471 kts | 122° |
| 2026-04-30 14:12 | 61.25853 | -1.05243 | 35264 ft | 471 kts | 123° |
| 2026-04-30 14:12 | 61.22926 | -0.93070 | 35269 ft | 471 kts | 123° |
| 2026-04-30 14:13 | 61.19991 | -0.80911 | 35273 ft | 471 kts | 123° |
| 2026-04-30 14:13 | 61.17047 | -0.68778 | 35275 ft | 471 kts | 123° |
| 2026-04-30 14:14 | 61.14109 | -0.56731 | 35277 ft | 472 kts | 123° |
| 2026-04-30 14:14 | 61.11142 | -0.44633 | 35286 ft | 472 kts | 123° |
| 2026-04-30 14:15 | 61.08166 | -0.32555 | 35289 ft | 472 kts | 123° |
| 2026-04-30 14:15 | 61.05176 | -0.20488 | 35296 ft | 472 kts | 123° |
| 2026-04-30 14:16 | 61.02179 | -0.08455 | 35309 ft | 472 kts | 123° |
| 2026-04-30 14:16 | 60.99056 | 0.03385 | 35316 ft | 469 kts | 127° |
| 2026-04-30 14:17 | 60.95792 | 0.15018 | 35308 ft | 469 kts | 126° |
| 2026-04-30 14:17 | 60.92559 | 0.26666 | 35316 ft | 469 kts | 126° |
| 2026-04-30 14:18 | 60.89313 | 0.38323 | 35620 ft | 469 kts | 126° |
| 2026-04-30 14:18 | 60.87688 | 0.44136 | 35909 ft | 468 kts | 126° |
| 2026-04-30 14:18 | 60.84443 | 0.55701 | 36433 ft | 467 kts | 126° |
| 2026-04-30 14:19 | 60.81199 | 0.67207 | 36948 ft | 465 kts | 126° |
| 2026-04-30 14:19 | 60.79600 | 0.72857 | 37171 ft | 465 kts | 126° |
| 2026-04-30 14:19 | 60.77977 | 0.78577 | 37342 ft | 464 kts | 126° |
| 2026-04-30 14:20 | 60.76355 | 0.84276 | 37337 ft | 463 kts | 126° |
| 2026-04-30 14:20 | 60.71481 | 1.01325 | 37351 ft | 463 kts | 126° |
| 2026-04-30 14:21 | 60.68219 | 1.12664 | 37352 ft | 463 kts | 126° |
| 2026-04-30 14:22 | 60.63307 | 1.29632 | 37361 ft | 463 kts | 126° |
| 2026-04-30 14:22 | 60.58376 | 1.46542 | 37366 ft | 463 kts | 126° |
| 2026-04-30 14:23 | 60.51766 | 1.69015 | 37378 ft | 463 kts | 126° |
| 2026-04-30 14:24 | 60.46783 | 1.85810 | 37386 ft | 463 kts | 126° |
| 2026-04-30 14:25 | 60.40114 | 2.08099 | 37391 ft | 463 kts | 126° |
| 2026-04-30 14:26 | 60.35087 | 2.24759 | 37399 ft | 463 kts | 126° |
| 2026-04-30 14:27 | 60.30042 | 2.41360 | 37401 ft | 463 kts | 126° |
| 2026-04-30 14:27 | 60.26689 | 2.52328 | 37404 ft | 462 kts | 126° |
| 2026-04-30 14:28 | 60.21609 | 2.68845 | 37414 ft | 463 kts | 126° |
| 2026-04-30 14:28 | 60.18213 | 2.79820 | 37416 ft | 463 kts | 126° |
| 2026-04-30 14:29 | 60.11944 | 2.99947 | 37420 ft | 463 kts | 126° |
| 2026-04-30 14:31 | 60.02809 | 3.28967 | 37433 ft | 462 kts | 126° |
| 2026-04-30 14:31 | 59.97635 | 3.45242 | 37435 ft | 462 kts | 126° |
| 2026-04-30 14:32 | 59.92446 | 3.61453 | 37438 ft | 462 kts | 126° |
| 2026-04-30 14:33 | 59.88974 | 3.72237 | 37443 ft | 462 kts | 126° |
| 2026-04-30 14:33 | 59.83755 | 3.88355 | 37445 ft | 462 kts | 126° |
| 2026-04-30 14:34 | 59.80287 | 3.99004 | 37450 ft | 462 kts | 126° |
| 2026-04-30 14:34 | 59.76789 | 4.09694 | 37460 ft | 462 kts | 126° |
| 2026-04-30 14:35 | 59.71528 | 4.25682 | 37454 ft | 462 kts | 126° |
| 2026-04-30 14:36 | 59.68010 | 4.36313 | 37459 ft | 461 kts | 126° |
| 2026-04-30 14:36 | 59.64484 | 4.46922 | 37458 ft | 461 kts | 126° |
| 2026-04-30 14:37 | 59.60949 | 4.57505 | 37468 ft | 461 kts | 126° |
| 2026-04-30 14:37 | 59.57407 | 4.68063 | 37466 ft | 461 kts | 126° |
| 2026-04-30 14:38 | 59.53859 | 4.78593 | 37462 ft | 461 kts | 126° |
| 2026-04-30 14:38 | 59.50300 | 4.89110 | 37474 ft | 461 kts | 126° |
| 2026-04-30 14:39 | 59.46734 | 4.99597 | 37484 ft | 461 kts | 126° |
| 2026-04-30 14:39 | 59.43159 | 5.10065 | 37486 ft | 461 kts | 126° |
| 2026-04-30 14:40 | 59.37804 | 5.25658 | 37483 ft | 461 kts | 126° |
| 2026-04-30 14:40 | 59.34213 | 5.36058 | 37481 ft | 461 kts | 126° |
| 2026-04-30 14:41 | 59.30611 | 5.46443 | 37481 ft | 461 kts | 126° |
| 2026-04-30 14:41 | 59.27003 | 5.56801 | 37485 ft | 461 kts | 126° |
| 2026-04-30 14:42 | 59.23387 | 5.67134 | 37486 ft | 461 kts | 126° |
| 2026-04-30 14:42 | 59.19761 | 5.77451 | 37483 ft | 461 kts | 126° |
| 2026-04-30 14:43 | 59.16130 | 5.87737 | 37480 ft | 460 kts | 126° |
| 2026-04-30 14:43 | 59.12513 | 5.97941 | 37480 ft | 460 kts | 126° |
| 2026-04-30 14:44 | 59.08868 | 6.08178 | 37472 ft | 460 kts | 126° |
| 2026-04-30 14:44 | 59.05212 | 6.18402 | 37469 ft | 461 kts | 126° |
| 2026-04-30 14:45 | 59.01545 | 6.28612 | 37462 ft | 461 kts | 126° |
| 2026-04-30 14:45 | 58.97898 | 6.38721 | 37451 ft | 461 kts | 126° |
| 2026-04-30 14:46 | 58.94220 | 6.48873 | 37442 ft | 460 kts | 126° |
| 2026-04-30 14:46 | 58.91132 | 6.57364 | 37436 ft | 460 kts | 126° |
| 2026-04-30 14:47 | 58.86842 | 6.69111 | 37427 ft | 460 kts | 126° |
| 2026-04-30 14:47 | 58.83134 | 6.79214 | 37422 ft | 461 kts | 126° |
| 2026-04-30 14:48 | 58.79424 | 6.89283 | 37407 ft | 460 kts | 126° |
| 2026-04-30 14:48 | 58.75709 | 6.99321 | 37405 ft | 460 kts | 126° |
| 2026-04-30 14:49 | 58.71981 | 7.09355 | 37393 ft | 460 kts | 126° |
| 2026-04-30 14:49 | 58.68246 | 7.19359 | 37392 ft | 460 kts | 126° |
| 2026-04-30 14:50 | 58.62649 | 7.34277 | 37375 ft | 461 kts | 126° |
| 2026-04-30 14:51 | 58.56998 | 7.49247 | 37371 ft | 462 kts | 126° |
| 2026-04-30 14:52 | 58.51322 | 7.64184 | 37365 ft | 463 kts | 126° |
| 2026-04-30 14:52 | 58.45626 | 7.79084 | 37359 ft | 463 kts | 126° |
| 2026-04-30 14:53 | 58.39902 | 7.93962 | 37367 ft | 463 kts | 126° |
| 2026-04-30 14:54 | 58.32250 | 8.13706 | 37372 ft | 463 kts | 126° |
| 2026-04-30 14:55 | 58.26489 | 8.28462 | 37372 ft | 463 kts | 126° |
| 2026-04-30 14:56 | 58.18809 | 8.48005 | 37376 ft | 464 kts | 126° |
| 2026-04-30 14:57 | 58.12995 | 8.62706 | 37378 ft | 466 kts | 126° |
| 2026-04-30 14:58 | 58.05193 | 8.82297 | 37381 ft | 467 kts | 126° |
| 2026-04-30 14:58 | 57.99311 | 8.96965 | 37392 ft | 468 kts | 126° |
| 2026-04-30 15:00 | 57.89493 | 9.21247 | 37406 ft | 467 kts | 127° |
| 2026-04-30 15:01 | 57.81029 | 9.39775 | 37420 ft | 468 kts | 129° |
| 2026-04-30 15:01 | 57.74700 | 9.53710 | 37420 ft | 468 kts | 129° |
| 2026-04-30 15:02 | 57.71190 | 9.61407 | 37427 ft | 468 kts | 129° |
| 2026-04-30 15:03 | 57.60611 | 9.84448 | 37433 ft | 467 kts | 130° |
| 2026-04-30 15:04 | 57.50001 | 10.07330 | 37442 ft | 467 kts | 130° |
| 2026-04-30 15:06 | 57.39376 | 10.30025 | 37442 ft | 465 kts | 130° |
| 2026-04-30 15:07 | 57.30873 | 10.48032 | 37431 ft | 464 kts | 130° |
| 2026-04-30 15:08 | 57.22349 | 10.65945 | 37435 ft | 464 kts | 130° |
| 2026-04-30 15:09 | 57.11690 | 10.88156 | 37434 ft | 464 kts | 130° |
| 2026-04-30 15:10 | 57.03107 | 11.05889 | 37439 ft | 464 kts | 130° |
| 2026-04-30 15:11 | 56.90176 | 11.32356 | 37435 ft | 464 kts | 131° |
| 2026-04-30 15:13 | 56.79369 | 11.54247 | 37437 ft | 464 kts | 131° |
| 2026-04-30 15:14 | 56.64184 | 11.84669 | 37439 ft | 464 kts | 131° |
| 2026-04-30 15:17 | 56.44585 | 12.23357 | 37440 ft | 464 kts | 131° |
| 2026-04-30 15:19 | 56.27028 | 12.57481 | 37437 ft | 464 kts | 131° |